createdAt,value
2019-03-29T00:02:17.080Z,7.23
2019-03-29T00:04:50.280Z,7.26
2019-03-29T00:07:22.608Z,7.16
2019-03-29T00:09:54.777Z,7.24
2019-03-29T00:12:28.489Z,7.27
2019-03-29T00:15:01.440Z,7.25
2019-03-29T00:17:35.552Z,7.27
2019-03-29T00:20:09.569Z,7.16
2019-03-29T00:22:45.485Z,7.19
2019-03-29T00:25:17.628Z,7.17
2019-03-29T00:27:49.599Z,7.20
2019-03-29T00:30:22.580Z,7.37
2019-03-29T00:32:57.904Z,7.38
2019-03-29T00:35:30.033Z,7.35
2019-03-29T00:38:03.790Z,7.29
2019-03-29T00:40:36.232Z,7.27
2019-03-29T00:43:09.088Z,7.25
2019-03-29T00:45:43.851Z,7.27
2019-03-29T00:48:17.695Z,7.29
2019-03-29T00:50:49.610Z,7.28
2019-03-29T00:53:22.577Z,7.26
2019-03-29T00:55:55.198Z,7.09
2019-03-29T00:58:28.911Z,6.98
2019-03-29T01:01:02.553Z,6.98
2019-03-29T01:03:34.732Z,7.04
2019-03-29T01:06:07.755Z,6.95
2019-03-29T01:08:40.698Z,6.90
2019-03-29T01:11:16.415Z,6.84
2019-03-29T01:13:50.958Z,6.75
2019-03-29T01:16:25.224Z,6.70
2019-03-29T01:18:58.749Z,6.78
2019-03-29T01:21:33.385Z,6.87
2019-03-29T01:24:07.856Z,6.97
2019-03-29T01:26:41.041Z,7.04
2019-03-29T01:29:13.652Z,7.07
2019-03-29T01:31:46.783Z,7.12
2019-03-29T01:34:18.900Z,7.10
2019-03-29T01:36:53.209Z,6.87
2019-03-29T01:39:25.697Z,6.74
2019-03-29T01:42:00.391Z,6.76
2019-03-29T01:44:35.159Z,6.83
2019-03-29T01:47:09.822Z,6.90
2019-03-29T01:49:44.687Z,6.98
2019-03-29T01:52:17.709Z,6.95
2019-03-29T01:54:50.662Z,6.91
2019-03-29T01:57:24.637Z,6.76
2019-03-29T01:59:58.695Z,6.82
2019-03-29T02:02:31.826Z,6.63
2019-03-29T02:05:07.294Z,6.98
2019-03-29T02:07:44.145Z,6.99
2019-03-29T02:10:17.989Z,6.98
2019-03-29T02:12:49.922Z,6.95
2019-03-29T02:15:21.921Z,6.88
2019-03-29T02:17:53.859Z,6.91
2019-03-29T02:20:25.693Z,6.94
2019-03-29T02:22:57.999Z,6.96
2019-03-29T02:25:32.953Z,6.97
2019-03-29T02:28:04.859Z,6.90
2019-03-29T02:30:38.046Z,6.74
2019-03-29T02:33:11.204Z,6.72
2019-03-29T02:35:45.065Z,6.83
2019-03-29T02:38:17.172Z,6.82
2019-03-29T02:40:51.000Z,6.80
2019-03-29T02:43:23.205Z,6.72
2019-03-29T02:45:57.613Z,6.70
2019-03-29T02:48:32.699Z,6.70
2019-03-29T02:51:05.270Z,6.72
2019-03-29T02:53:38.245Z,6.69
2019-03-29T02:56:11.180Z,6.66
2019-03-29T02:58:44.241Z,6.62
2019-03-29T03:01:17.939Z,6.58
2019-03-29T03:03:52.130Z,6.58
2019-03-29T03:06:26.263Z,6.57
2019-03-29T03:09:12.392Z,6.65
2019-03-29T03:11:36.771Z,6.60
2019-03-29T03:14:11.338Z,6.56
2019-03-29T03:16:44.345Z,6.40
2019-03-29T03:19:18.397Z,6.27
2019-03-29T03:21:50.469Z,6.35
2019-03-29T03:24:22.292Z,6.22
2019-03-29T03:26:57.073Z,6.28
2019-03-29T03:29:31.443Z,6.34
2019-03-29T03:32:05.210Z,6.42
2019-03-29T03:34:37.241Z,6.46
2019-03-29T03:37:11.340Z,6.42
2019-03-29T03:39:44.329Z,6.49
2019-03-29T03:42:17.659Z,6.57
2019-03-29T03:44:54.042Z,6.62
2019-03-29T03:47:25.798Z,6.44
2019-03-29T03:50:00.882Z,6.31
2019-03-29T03:52:34.277Z,6.11
2019-03-29T03:55:07.511Z,6.14
2019-03-29T03:57:40.575Z,6.15
2019-03-29T04:00:36.427Z,6.25
2019-03-29T04:03:09.438Z,6.36
2019-03-29T04:05:41.192Z,6.38
2019-03-29T04:08:15.090Z,6.46
2019-03-29T04:11:00.796Z,6.49
2019-03-29T04:13:35.741Z,6.47
2019-03-29T04:16:07.564Z,6.43
2019-03-29T04:18:42.273Z,6.41
2019-03-29T04:21:18.458Z,6.37
2019-03-29T04:23:53.357Z,6.34
2019-03-29T04:26:25.529Z,6.22
2019-03-29T04:29:04.919Z,6.21
2019-03-29T04:31:36.282Z,6.30
2019-03-29T04:34:09.464Z,6.31
2019-03-29T04:36:41.285Z,6.36
2019-03-29T04:39:14.249Z,6.36
2019-03-29T04:41:47.865Z,6.38
2019-03-29T04:44:19.829Z,6.39
2019-03-29T04:46:54.329Z,6.35
2019-03-29T04:49:26.151Z,6.35
2019-03-29T04:51:58.731Z,6.38
2019-03-29T04:54:31.751Z,6.32
2019-03-29T04:57:03.886Z,6.33
2019-03-29T04:59:38.330Z,6.39
2019-03-29T05:02:14.637Z,6.35
2019-03-29T05:04:48.465Z,6.32
2019-03-29T05:07:22.746Z,6.17
2019-03-29T05:09:55.719Z,6.28
2019-03-29T05:12:28.725Z,6.28
2019-03-29T05:15:04.635Z,6.31
2019-03-29T05:17:37.793Z,6.38
2019-03-29T05:20:14.774Z,6.27
2019-03-29T05:22:46.951Z,6.27
2019-03-29T05:25:21.421Z,6.22
2019-03-29T05:27:57.778Z,6.26
2019-03-29T05:30:31.764Z,6.19
2019-03-29T05:33:05.123Z,5.93
2019-03-29T05:35:37.986Z,5.93
2019-03-29T05:38:10.914Z,6.02
2019-03-29T05:40:45.506Z,5.95
2019-03-29T05:43:19.180Z,6.04
2019-03-29T05:45:52.985Z,6.00
2019-03-29T05:48:25.422Z,5.98
2019-03-29T05:50:57.206Z,5.93
2019-03-29T05:53:29.220Z,5.76
2019-03-29T05:56:01.776Z,5.63
2019-03-29T05:58:34.945Z,5.76
2019-03-29T06:01:06.839Z,5.77
2019-03-29T06:03:40.929Z,5.83
2019-03-29T06:06:13.926Z,5.88
2019-03-29T06:08:47.108Z,5.72
2019-03-29T06:11:20.001Z,5.75
2019-03-29T06:13:55.246Z,5.81
2019-03-29T06:16:38.890Z,5.84
2019-03-29T06:19:05.787Z,5.81
2019-03-29T06:21:39.655Z,5.86
2019-03-29T06:24:12.943Z,5.89
2019-03-29T06:26:48.166Z,5.91
2019-03-29T06:29:20.678Z,5.95
2019-03-29T06:31:56.651Z,5.97
2019-03-29T06:34:30.879Z,5.95
2019-03-29T06:37:05.650Z,5.97
2019-03-29T06:39:38.338Z,6.05
2019-03-29T06:42:13.494Z,6.09
2019-03-29T06:44:46.357Z,5.94
2019-03-29T06:47:21.146Z,5.82
2019-03-29T06:49:53.273Z,5.85
2019-03-29T06:52:28.581Z,5.95
2019-03-29T06:55:05.502Z,6.03
2019-03-29T06:57:39.453Z,6.03
2019-03-29T07:00:13.622Z,6.08
2019-03-29T07:02:48.183Z,6.08
2019-03-29T07:05:20.316Z,6.08
2019-03-29T07:07:53.237Z,6.10
2019-03-29T07:10:25.493Z,6.19
2019-03-29T07:12:59.963Z,6.16
2019-03-29T07:15:33.127Z,6.29
2019-03-29T07:18:10.473Z,6.37
2019-03-29T07:20:45.622Z,6.45
2019-03-29T07:23:18.407Z,6.50
2019-03-29T07:25:52.173Z,6.54
2019-03-29T07:28:25.875Z,6.56
2019-03-29T07:31:00.632Z,6.62
2019-03-29T07:33:32.461Z,6.68
2019-03-29T07:36:06.466Z,6.71
2019-03-29T07:38:38.825Z,6.78
2019-03-29T07:41:11.526Z,6.82
2019-03-29T07:43:44.622Z,6.89
2019-03-29T07:46:19.471Z,6.93
2019-03-29T07:48:53.033Z,6.97
2019-03-29T07:51:25.728Z,6.96
2019-03-29T07:54:01.282Z,6.87
2019-03-29T07:56:37.321Z,6.91
2019-03-29T07:59:11.583Z,6.87
2019-03-29T08:01:45.503Z,7.02
2019-03-29T08:04:21.632Z,7.01
2019-03-29T08:06:53.795Z,7.10
2019-03-29T08:09:27.191Z,7.08
2019-03-29T08:11:59.528Z,7.13
2019-03-29T08:14:50.801Z,7.23
2019-03-29T08:17:24.111Z,7.09
2019-03-29T08:20:24.388Z,7.09
2019-03-29T08:22:32.782Z,7.07
2019-03-29T08:25:05.675Z,7.08
2019-03-29T08:27:38.656Z,7.18
2019-03-29T08:30:10.685Z,7.18
2019-03-29T08:32:48.071Z,7.13
2019-03-29T08:35:21.713Z,7.09
2019-03-29T08:37:54.187Z,7.15
2019-03-29T08:40:26.653Z,7.10
2019-03-29T08:43:00.593Z,7.23
2019-03-29T08:45:32.780Z,7.28
2019-03-29T08:48:06.990Z,7.19
2019-03-29T08:50:40.398Z,7.19
2019-03-29T08:53:14.789Z,7.15
2019-03-29T08:55:46.845Z,7.24
2019-03-29T08:58:20.533Z,7.38
2019-03-29T09:00:52.638Z,7.34
2019-03-29T09:03:26.198Z,7.29
2019-03-29T09:05:59.887Z,7.33
2019-03-29T09:08:32.817Z,7.54
2019-03-29T09:11:07.562Z,7.55
2019-03-29T09:13:40.856Z,7.56
2019-03-29T09:16:14.753Z,7.64
2019-03-29T09:18:46.834Z,7.48
2019-03-29T09:21:20.812Z,7.51
2019-03-29T09:23:53.846Z,7.51
2019-03-29T09:26:25.719Z,7.58
2019-03-29T09:29:00.585Z,7.62
2019-03-29T09:31:34.371Z,7.81
2019-03-29T09:34:08.916Z,8.05
2019-03-29T09:36:40.903Z,8.20
2019-03-29T09:39:14.077Z,8.08
2019-03-29T09:41:47.936Z,8.24
2019-03-29T09:44:20.087Z,8.21
2019-03-29T09:46:51.897Z,8.36
2019-03-29T09:49:25.920Z,8.51
2019-03-29T09:51:59.409Z,8.31
2019-03-29T09:54:32.048Z,8.41
2019-03-29T09:57:04.973Z,8.61
2019-03-29T09:59:37.969Z,8.34
2019-03-29T10:02:12.014Z,8.47
2019-03-29T10:04:44.166Z,8.30
2019-03-29T10:07:18.121Z,8.42
2019-03-29T10:09:51.004Z,8.31
2019-03-29T10:12:23.164Z,8.36
2019-03-29T10:14:56.178Z,8.45
2019-03-29T10:17:29.228Z,8.63
2019-03-29T10:20:03.156Z,8.51
2019-03-29T10:22:35.997Z,8.48
2019-03-29T10:25:19.342Z,8.59
2019-03-29T10:27:46.795Z,8.58
2019-03-29T10:30:42.105Z,8.70
2019-03-29T10:36:49.515Z,8.88
2019-03-29T10:39:26.418Z,8.84
2019-03-29T10:41:59.110Z,9.14
2019-03-29T10:44:32.325Z,9.10
2019-03-29T10:47:04.084Z,9.39
2019-03-29T10:49:40.020Z,9.37
2019-03-29T10:52:15.206Z,9.32
2019-03-29T10:54:50.058Z,9.25
2019-03-29T10:57:24.579Z,9.19
2019-03-29T10:59:58.321Z,9.35
2019-03-29T11:02:33.772Z,9.44
2019-03-29T11:05:06.403Z,9.64
2019-03-29T11:07:38.694Z,9.62
2019-03-29T11:10:19.914Z,9.81
2019-03-29T11:16:17.077Z,9.70
2019-03-29T11:18:50.309Z,9.67
2019-03-29T11:21:22.098Z,9.90
2019-03-29T11:23:54.256Z,9.99
2019-03-29T11:29:50.253Z,10.32
2019-03-29T11:32:23.460Z,10.23
2019-03-29T11:34:56.413Z,10.02
2019-03-29T11:37:31.220Z,10.16
2019-03-29T11:40:06.092Z,10.36
2019-03-29T11:42:38.574Z,10.22
2019-03-29T11:45:11.744Z,10.45
2019-03-29T11:47:46.556Z,10.40
2019-03-29T11:50:20.403Z,10.25
2019-03-29T11:52:55.323Z,10.10
2019-03-29T11:55:30.598Z,10.42
2019-03-29T11:58:03.644Z,10.44
2019-03-29T12:00:37.804Z,10.74
2019-03-29T12:03:13.071Z,10.97
2019-03-29T12:05:46.967Z,11.16
2019-03-29T12:08:21.689Z,11.44
2019-03-29T12:10:54.112Z,11.73
2019-03-29T12:13:40.015Z,11.64
2019-03-29T12:16:03.539Z,12.10
2019-03-29T12:18:35.754Z,12.02
2019-03-29T12:21:10.319Z,11.79
2019-03-29T12:23:44.509Z,12.00
2019-03-29T12:26:17.773Z,12.16
2019-03-29T12:28:51.583Z,12.52
2019-03-29T12:31:25.429Z,12.78
2019-03-29T12:33:59.742Z,12.95
2019-03-29T12:36:33.002Z,12.80
2019-03-29T12:39:08.015Z,12.90
2019-03-29T12:41:42.656Z,13.11
2019-03-29T12:44:16.613Z,13.27
2019-03-29T12:46:50.882Z,13.31
2019-03-29T12:49:23.653Z,13.31
2019-03-29T12:51:58.423Z,13.25
2019-03-29T12:54:32.947Z,13.46
2019-03-29T12:57:06.838Z,13.16
2019-03-29T12:59:38.910Z,13.49
2019-03-29T13:02:14.359Z,13.62
2019-03-29T13:04:48.061Z,13.57
2019-03-29T13:07:20.778Z,13.69
2019-03-29T13:09:53.764Z,14.02
2019-03-29T13:12:26.436Z,13.59
2019-03-29T13:15:00.489Z,13.63
2019-03-29T13:17:32.879Z,13.60
2019-03-29T13:20:06.342Z,13.73
2019-03-29T13:22:38.331Z,13.99
2019-03-29T13:25:12.213Z,13.89
2019-03-29T13:27:45.379Z,14.02
2019-03-29T13:30:20.741Z,14.07
2019-03-29T13:32:55.719Z,14.50
2019-03-29T13:35:31.524Z,14.80
2019-03-29T13:38:07.526Z,14.62
2019-03-29T13:40:41.868Z,14.69
2019-03-29T13:43:15.196Z,14.78
2019-03-29T13:45:48.297Z,14.82
2019-03-29T13:48:23.012Z,14.86
2019-03-29T13:50:59.440Z,14.64
2019-03-29T13:53:31.534Z,14.72
2019-03-29T13:56:07.557Z,14.57
2019-03-29T13:58:40.826Z,14.65
2019-03-29T14:01:14.461Z,14.78
2019-03-29T14:03:47.255Z,14.60
2019-03-29T14:06:21.204Z,14.66
2019-03-29T14:08:53.202Z,14.77
2019-03-29T14:11:25.045Z,14.94
2019-03-29T14:13:59.014Z,14.79
2019-03-29T14:16:33.049Z,14.96
2019-03-29T14:19:06.367Z,14.90
2019-03-29T14:21:39.344Z,14.59
2019-03-29T14:24:15.675Z,14.50
2019-03-29T14:26:47.763Z,14.92
2019-03-29T14:29:21.974Z,15.16
2019-03-29T14:31:54.429Z,15.41
2019-03-29T14:34:30.178Z,15.44
2019-03-29T14:37:03.135Z,15.50
2019-03-29T14:39:37.706Z,15.54
2019-03-29T14:42:14.290Z,15.63
2019-03-29T14:44:52.743Z,15.25
2019-03-29T14:47:38.119Z,15.62
2019-03-29T14:50:03.211Z,15.46
2019-03-29T14:52:36.440Z,15.22
2019-03-29T14:55:10.359Z,15.47
2019-03-29T14:57:46.871Z,15.55
2019-03-29T15:00:43.104Z,15.89
2019-03-29T15:03:23.358Z,16.03
2019-03-29T15:06:01.496Z,16.23
2019-03-29T15:08:34.051Z,15.96
2019-03-29T15:11:21.241Z,16.02
2019-03-29T15:13:45.292Z,16.23
2019-03-29T15:16:20.574Z,16.10
2019-03-29T15:18:54.438Z,15.98
2019-03-29T15:21:26.334Z,15.97
2019-03-29T15:24:01.135Z,15.65
2019-03-29T15:26:35.414Z,15.48
2019-03-29T15:29:08.266Z,15.58
2019-03-29T15:31:41.490Z,15.27
2019-03-29T15:34:16.022Z,15.33
2019-03-29T15:36:47.802Z,15.52
2019-03-29T15:39:20.521Z,15.65
2019-03-29T15:41:53.479Z,15.70
2019-03-29T15:44:25.564Z,15.86
2019-03-29T15:46:57.558Z,15.67
2019-03-29T15:49:31.454Z,15.72
2019-03-29T15:52:04.572Z,15.85
2019-03-29T15:54:38.686Z,15.70
2019-03-29T15:57:11.764Z,15.83
2019-03-29T15:59:44.669Z,15.81
2019-03-29T16:02:17.528Z,15.86
2019-03-29T16:04:50.578Z,15.85
2019-03-29T16:07:23.722Z,15.97
2019-03-29T16:09:56.850Z,15.86
2019-03-29T16:12:30.599Z,15.73
2019-03-29T16:15:02.690Z,15.51
2019-03-29T16:17:35.625Z,15.17
2019-03-29T16:20:11.109Z,14.82
2019-03-29T16:22:47.252Z,14.81
2019-03-29T16:25:20.598Z,14.95
2019-03-29T16:27:54.390Z,15.00
2019-03-29T16:30:26.477Z,14.94
2019-03-29T16:33:01.361Z,15.23
2019-03-29T16:35:37.573Z,14.81
2019-03-29T16:38:13.422Z,15.48
2019-03-29T16:40:47.849Z,15.71
2019-03-29T16:43:20.854Z,15.95
2019-03-29T16:45:53.888Z,15.70
2019-03-29T16:48:27.150Z,15.83
2019-03-29T16:51:00.347Z,15.44
2019-03-29T16:53:33.258Z,15.19
2019-03-29T16:56:05.816Z,14.77
2019-03-29T16:58:38.802Z,14.47
2019-03-29T17:01:11.814Z,14.00
2019-03-29T17:03:45.405Z,13.57
2019-03-29T17:06:18.641Z,13.55
2019-03-29T17:08:50.835Z,13.23
2019-03-29T17:11:23.760Z,12.89
2019-03-29T17:13:58.075Z,12.80
2019-03-29T17:16:33.146Z,12.73
2019-03-29T17:19:04.907Z,12.67
2019-03-29T17:21:36.996Z,12.57
2019-03-29T17:24:09.920Z,12.38
2019-03-29T17:26:42.922Z,12.32
2019-03-29T17:29:16.048Z,12.31
2019-03-29T17:31:48.181Z,12.08
2019-03-29T17:34:21.894Z,11.98
2019-03-29T17:36:54.932Z,11.73
2019-03-29T17:39:26.751Z,11.56
2019-03-29T17:42:00.027Z,11.46
2019-03-29T17:44:33.161Z,11.33
2019-03-29T17:47:06.023Z,11.26
2019-03-29T17:49:39.207Z,11.06
2019-03-29T17:52:12.297Z,10.93
2019-03-29T17:54:45.057Z,10.90
2019-03-29T17:57:18.158Z,10.66
2019-03-29T17:59:52.514Z,10.44
2019-03-29T18:02:27.209Z,10.52
2019-03-29T18:05:00.050Z,10.26
2019-03-29T18:07:33.124Z,10.09
2019-03-29T18:10:06.724Z,10.04
2019-03-29T18:12:40.112Z,10.04
2019-03-29T18:15:14.013Z,9.85
2019-03-29T18:17:48.369Z,9.80
2019-03-29T18:20:21.029Z,9.62
2019-03-29T18:22:54.190Z,9.27
2019-03-29T18:25:26.649Z,9.15
2019-03-29T18:28:01.459Z,8.97
2019-03-29T18:30:44.258Z,8.82
2019-03-29T18:33:18.297Z,8.53
2019-03-29T18:35:52.324Z,8.67
2019-03-29T18:38:24.997Z,8.46
2019-03-29T18:40:57.690Z,8.43
2019-03-29T18:43:30.254Z,8.32
2019-03-29T18:46:05.023Z,8.09
2019-03-29T18:48:39.258Z,8.19
2019-03-29T18:51:11.365Z,8.09
2019-03-29T18:53:43.708Z,7.95
2019-03-29T18:56:18.689Z,7.93
2019-03-29T18:58:52.367Z,7.89
2019-03-29T19:01:26.044Z,7.85
2019-03-29T19:04:00.787Z,7.82
2019-03-29T19:06:34.381Z,7.96
2019-03-29T19:09:08.062Z,7.96
2019-03-29T19:11:42.526Z,7.92
2019-03-29T19:14:15.829Z,7.91
2019-03-29T19:16:58.919Z,7.90
2019-03-29T19:19:23.652Z,7.93
2019-03-29T19:21:57.595Z,7.98
2019-03-29T19:24:30.545Z,7.92
2019-03-29T19:27:04.468Z,7.88
2019-03-29T19:29:37.771Z,7.93
2019-03-29T19:32:09.606Z,7.83
2019-03-29T19:34:43.428Z,7.77
2019-03-29T19:37:15.521Z,7.74
2019-03-29T19:39:48.623Z,7.68
2019-03-29T19:42:21.499Z,7.63
2019-03-29T19:44:54.802Z,7.49
2019-03-29T19:47:26.748Z,7.55
2019-03-29T19:50:02.267Z,7.48
2019-03-29T19:52:35.827Z,7.47
2019-03-29T19:55:11.570Z,7.59
2019-03-29T19:57:47.427Z,7.56
2019-03-29T20:00:35.589Z,7.37
2019-03-29T20:03:09.896Z,7.29
2019-03-29T20:05:42.614Z,6.93
2019-03-29T20:08:15.706Z,6.85
2019-03-29T20:10:48.808Z,6.86
2019-03-29T20:13:21.750Z,6.81
2019-03-29T20:15:54.749Z,6.87
2019-03-29T20:18:27.116Z,6.82
2019-03-29T20:21:00.674Z,6.94
2019-03-29T20:23:33.853Z,6.88
2019-03-29T20:26:08.488Z,6.65
2019-03-29T20:28:43.650Z,6.69
2019-03-29T20:31:15.856Z,6.76
2019-03-29T20:33:48.869Z,6.70
2019-03-29T20:36:23.038Z,6.58
2019-03-29T20:38:55.028Z,6.47
2019-03-29T20:41:27.506Z,6.47
2019-03-29T20:43:59.762Z,6.24
2019-03-29T20:46:33.384Z,6.14
2019-03-29T20:49:07.014Z,6.16
2019-03-29T20:51:41.171Z,6.12
2019-03-29T20:54:14.898Z,6.11
2019-03-29T20:56:48.299Z,6.24
2019-03-29T20:59:20.937Z,6.26
2019-03-29T21:01:54.797Z,6.17
2019-03-29T21:04:28.561Z,6.09
2019-03-29T21:07:02.053Z,6.08
2019-03-29T21:09:36.006Z,6.14
2019-03-29T21:12:09.075Z,6.19
2019-03-29T21:14:41.942Z,6.10
2019-03-29T21:17:15.036Z,6.04
2019-03-29T21:19:48.285Z,6.06
2019-03-29T21:22:21.027Z,5.96
2019-03-29T21:24:55.554Z,5.78
2019-03-29T21:27:27.506Z,5.80
2019-03-29T21:30:00.302Z,5.79
2019-03-29T21:32:33.076Z,5.82
2019-03-29T21:35:07.466Z,5.73
2019-03-29T21:37:46.014Z,5.62
2019-03-29T21:40:17.985Z,5.76
2019-03-29T21:42:51.334Z,5.57
2019-03-29T21:45:28.924Z,5.61
2019-03-29T21:48:08.882Z,5.58
2019-03-29T21:50:36.110Z,5.55
2019-03-29T21:53:10.071Z,5.55
2019-03-29T21:55:42.174Z,5.38
2019-03-29T21:58:15.149Z,5.37
2019-03-29T22:00:48.294Z,5.35
2019-03-29T22:03:20.432Z,5.34
2019-03-29T22:05:54.233Z,5.35
2019-03-29T22:08:26.867Z,5.44
2019-03-29T22:11:00.249Z,5.42
2019-03-29T22:13:33.190Z,5.44
2019-03-29T22:16:06.180Z,5.42
2019-03-29T22:18:39.194Z,5.38
2019-03-29T22:21:12.404Z,5.14
2019-03-29T22:23:45.493Z,5.18
2019-03-29T22:26:20.290Z,5.15
2019-03-29T22:28:53.399Z,5.15
2019-03-29T22:31:25.276Z,5.17
2019-03-29T22:33:58.503Z,5.11
2019-03-29T22:36:33.410Z,5.05
2019-03-29T22:39:08.218Z,5.04
2019-03-29T22:41:42.318Z,4.82
2019-03-29T22:44:15.347Z,4.91
2019-03-29T22:46:48.426Z,4.95
2019-03-29T22:49:21.408Z,4.88
2019-03-29T22:51:54.407Z,4.88
2019-03-29T22:54:37.831Z,4.84
2019-03-29T22:57:12.501Z,4.78
2019-03-29T22:59:45.459Z,4.79
2019-03-29T23:02:20.204Z,4.68
2019-03-29T23:04:56.143Z,4.61
2019-03-29T23:07:29.511Z,4.48
2019-03-29T23:10:03.875Z,4.48
2019-03-29T23:12:36.442Z,4.63
2019-03-29T23:15:10.149Z,4.51
2019-03-29T23:17:44.322Z,4.60
2019-03-29T23:20:18.640Z,4.47
2019-03-29T23:22:51.712Z,4.49
2019-03-29T23:25:24.913Z,4.44
2019-03-29T23:27:57.591Z,4.44
2019-03-29T23:30:30.419Z,4.47
2019-03-29T23:33:02.692Z,4.38
2019-03-29T23:35:37.152Z,4.37
2019-03-29T23:38:09.653Z,4.37
2019-03-29T23:40:42.470Z,4.34
2019-03-29T23:43:15.911Z,4.32
2019-03-29T23:45:48.733Z,4.34
2019-03-29T23:48:20.496Z,4.45
2019-03-29T23:50:54.649Z,4.35
2019-03-29T23:53:27.264Z,4.42
2019-03-29T23:56:00.600Z,4.15
2019-03-29T23:58:34.049Z,4.11
